createdAt,value
2022-12-25T00:01:18.671Z,112.43
2022-12-25T00:03:45.744Z,111.43
2022-12-25T00:06:12.619Z,108.63
2022-12-25T00:08:40.448Z,101.47
2022-12-25T00:11:12.913Z,87.03
2022-12-25T00:13:39.833Z,100.28
2022-12-25T00:16:21.308Z,97.10
2022-12-25T00:18:48.529Z,101.05
2022-12-25T00:21:15.431Z,115.22
2022-12-25T00:23:42.682Z,96.25
2022-12-25T00:26:11.871Z,96.63
2022-12-25T00:28:39.172Z,95.68
2022-12-25T00:31:11.400Z,89.43
2022-12-25T00:33:39.941Z,102.78
2022-12-25T00:36:07.557Z,102.55
2022-12-25T00:38:35.920Z,91.85
2022-12-25T00:41:10.606Z,83.00
2022-12-25T00:43:38.636Z,75.43
2022-12-25T00:46:06.529Z,100.72
2022-12-25T00:48:34.049Z,94.60
2022-12-25T00:51:03.853Z,100.50
2022-12-25T00:53:31.182Z,100.05
2022-12-25T00:56:03.739Z,95.75
2022-12-25T00:58:32.413Z,96.82
2022-12-25T01:00:59.431Z,99.90
2022-12-25T01:03:26.942Z,90.60
2022-12-25T01:06:02.559Z,92.32
2022-12-25T01:08:31.491Z,102.72
2022-12-25T01:11:03.444Z,95.93
2022-12-25T01:13:31.408Z,91.53
2022-12-25T01:15:58.303Z,95.30
2022-12-25T01:18:25.534Z,94.80
2022-12-25T01:20:52.431Z,87.35
2022-12-25T01:23:19.081Z,91.63
2022-12-25T01:25:45.814Z,81.70
2022-12-25T01:28:12.466Z,89.07
2022-12-25T01:30:39.598Z,94.65
2022-12-25T01:33:06.365Z,94.15
2022-12-25T01:35:32.936Z,89.70
2022-12-25T01:37:59.627Z,88.63
2022-12-25T01:40:26.642Z,94.88
2022-12-25T01:42:53.534Z,99.60
2022-12-25T01:45:39.491Z,82.82
2022-12-25T01:48:10.437Z,83.18
2022-12-25T01:50:38.149Z,81.88
2022-12-25T01:53:05.516Z,90.07
2022-12-25T01:55:33.470Z,87.47
2022-12-25T01:58:00.179Z,93.15
2022-12-25T02:00:26.800Z,93.18
2022-12-25T02:02:53.617Z,88.50
2022-12-25T02:05:28.133Z,86.93
2022-12-25T02:07:55.010Z,88.80
2022-12-25T02:10:21.726Z,79.50
2022-12-25T02:12:48.975Z,74.25
2022-12-25T02:15:18.398Z,75.90
2022-12-25T02:18:00.623Z,75.75
2022-12-25T02:20:39.880Z,77.05
2022-12-25T02:23:44.162Z,75.53
2022-12-25T02:26:18.732Z,78.88
2022-12-25T02:28:48.933Z,78.47
2022-12-25T02:31:27.025Z,74.28
2022-12-25T02:34:12.176Z,87.93
2022-12-25T02:37:01.909Z,88.72
2022-12-25T02:39:59.739Z,77.07
2022-12-25T02:43:14.233Z,82.47
2022-12-25T02:46:07.877Z,73.47
2022-12-25T02:48:57.031Z,72.88
2022-12-25T02:51:44.896Z,71.63
2022-12-25T02:54:34.155Z,64.75
2022-12-25T02:57:20.708Z,66.75
2022-12-25T03:00:07.496Z,71.63
2022-12-25T03:02:53.287Z,76.15
2022-12-25T03:08:08.737Z,62.83
2022-12-25T03:10:56.555Z,68.03
2022-12-25T03:13:26.103Z,56.85
2022-12-25T03:16:11.522Z,69.30
2022-12-25T03:18:38.492Z,57.45
2022-12-25T03:21:24.232Z,63.90
2022-12-25T03:26:55.366Z,52.95
2022-12-25T03:29:46.369Z,55.97
2022-12-25T03:32:20.099Z,64.15
2022-12-25T03:35:14.864Z,60.47
2022-12-25T03:38:26.290Z,53.60
2022-12-25T03:41:38.239Z,63.80
2022-12-25T03:44:31.641Z,56.00
2022-12-25T03:47:41.908Z,49.10
2022-12-25T03:50:56.371Z,43.58
2022-12-25T03:53:50.239Z,50.97
2022-12-25T03:56:36.529Z,49.60
2022-12-25T03:59:24.151Z,48.33
2022-12-25T04:02:10.883Z,50.92
2022-12-25T04:04:56.306Z,51.78
2022-12-25T04:07:41.875Z,65.82
2022-12-25T04:10:27.594Z,59.50
2022-12-25T04:13:12.895Z,51.88
2022-12-25T04:15:58.157Z,48.60
2022-12-25T04:18:43.500Z,44.28
2022-12-25T04:21:28.901Z,59.00
2022-12-25T04:24:14.205Z,47.95
2022-12-25T04:26:59.595Z,54.30
2022-12-25T04:29:44.757Z,50.30
2022-12-25T04:32:30.341Z,57.50
2022-12-25T04:35:16.030Z,52.35
2022-12-25T04:37:42.747Z,59.45
2022-12-25T04:40:09.913Z,46.47
2022-12-25T04:42:36.711Z,50.72
2022-12-25T04:45:03.736Z,55.40
2022-12-25T04:47:30.458Z,54.22
2022-12-25T04:49:57.369Z,53.95
2022-12-25T04:52:24.154Z,47.90
2022-12-25T04:54:50.868Z,44.95
2022-12-25T04:57:17.570Z,46.58
2022-12-25T04:59:44.218Z,47.90
2022-12-25T05:02:11.112Z,51.83
2022-12-25T05:04:37.784Z,44.97
2022-12-25T05:07:04.529Z,47.85
2022-12-25T05:09:31.183Z,54.58
2022-12-25T05:11:57.900Z,52.70
2022-12-25T05:14:24.527Z,48.72
2022-12-25T05:16:51.461Z,41.45
2022-12-25T05:19:18.270Z,57.70
2022-12-25T05:21:44.936Z,43.10
2022-12-25T05:24:11.592Z,47.92
2022-12-25T05:26:38.272Z,55.00
2022-12-25T05:29:04.906Z,52.72
2022-12-25T05:31:31.945Z,52.00
2022-12-25T05:33:58.800Z,46.65
2022-12-25T05:36:25.463Z,44.90
2022-12-25T05:38:52.245Z,38.03
2022-12-25T05:41:19.001Z,37.53
2022-12-25T05:43:45.797Z,35.05
2022-12-25T05:46:13.571Z,37.42
2022-12-25T05:48:40.269Z,35.80
2022-12-25T05:51:08.796Z,36.72
2022-12-25T05:53:35.982Z,33.95
2022-12-25T05:56:04.697Z,37.35
2022-12-25T05:58:32.336Z,30.08
2022-12-25T06:00:59.493Z,35.03
2022-12-25T06:03:26.767Z,28.00
2022-12-25T06:05:54.037Z,30.05
2022-12-25T06:08:21.267Z,29.58
2022-12-25T06:10:48.134Z,28.33
2022-12-25T06:13:15.245Z,28.40
2022-12-25T06:15:45.939Z,27.70
2022-12-25T06:18:12.642Z,28.50
2022-12-25T06:20:42.501Z,24.85
2022-12-25T06:23:09.223Z,30.13
2022-12-25T06:25:39.652Z,27.77
2022-12-25T06:28:07.108Z,25.85
2022-12-25T06:30:34.079Z,25.95
2022-12-25T06:33:00.937Z,24.92
2022-12-25T06:35:27.644Z,28.30
2022-12-25T06:37:54.265Z,24.40
2022-12-25T06:40:21.019Z,26.15
2022-12-25T06:42:47.820Z,26.77
2022-12-25T06:45:14.505Z,29.00
2022-12-25T06:47:41.325Z,23.67
2022-12-25T06:50:08.333Z,23.67
2022-12-25T06:52:35.309Z,25.27
2022-12-25T06:55:14.643Z,23.70
2022-12-25T06:57:41.277Z,20.50
2022-12-25T07:00:09.038Z,22.42
2022-12-25T07:02:38.610Z,21.75
2022-12-25T07:05:05.981Z,26.55
2022-12-25T07:07:32.968Z,19.63
2022-12-25T07:09:59.710Z,19.80
2022-12-25T07:12:26.503Z,18.08
2022-12-25T07:14:56.399Z,21.52
2022-12-25T07:17:24.171Z,21.50
2022-12-25T07:19:51.196Z,17.63
2022-12-25T07:22:18.261Z,14.52
2022-12-25T07:24:45.599Z,17.45
2022-12-25T07:27:12.385Z,18.00
2022-12-25T07:29:39.130Z,18.10
2022-12-25T07:32:06.273Z,19.55
2022-12-25T07:34:33.001Z,13.82
2022-12-25T07:36:59.837Z,17.17
2022-12-25T07:39:26.784Z,14.07
2022-12-25T07:41:54.030Z,16.08
2022-12-25T07:44:20.891Z,14.13
2022-12-25T07:46:48.034Z,15.95
2022-12-25T07:49:14.734Z,17.25
2022-12-25T07:51:41.490Z,15.65
2022-12-25T07:54:08.643Z,16.45
2022-12-25T07:56:35.441Z,17.63
2022-12-25T07:59:02.128Z,16.92
2022-12-25T08:01:29.903Z,15.73
2022-12-25T08:03:59.357Z,18.52
2022-12-25T08:06:30.096Z,18.73
2022-12-25T08:09:09.207Z,17.45
2022-12-25T08:11:36.473Z,20.17
2022-12-25T08:14:06.258Z,17.73
2022-12-25T08:16:35.659Z,17.20
2022-12-25T08:19:02.364Z,18.52
2022-12-25T08:21:29.050Z,16.55
2022-12-25T08:23:55.715Z,17.17
2022-12-25T08:26:23.055Z,17.48
2022-12-25T08:28:50.105Z,17.65
2022-12-25T08:31:25.249Z,19.17
2022-12-25T08:33:54.104Z,16.05
2022-12-25T08:36:21.837Z,18.95
2022-12-25T08:38:48.652Z,20.77
2022-12-25T08:41:15.961Z,18.08
2022-12-25T08:43:43.167Z,23.05
2022-12-25T08:46:10.019Z,19.83
2022-12-25T08:48:40.372Z,17.85
2022-12-25T08:51:14.937Z,18.30
2022-12-25T08:53:43.718Z,18.95
2022-12-25T08:56:10.667Z,18.27
2022-12-25T08:58:37.641Z,18.63
2022-12-25T09:01:04.998Z,20.52
2022-12-25T09:03:34.910Z,20.63
2022-12-25T09:06:06.620Z,19.08
2022-12-25T09:08:33.946Z,16.77
2022-12-25T09:11:12.753Z,18.27
2022-12-25T09:13:39.914Z,18.80
2022-12-25T09:16:12.071Z,16.27
2022-12-25T09:18:39.114Z,17.75
2022-12-25T09:21:08.243Z,16.60
2022-12-25T09:23:35.273Z,20.42
2022-12-25T09:26:03.741Z,21.42
2022-12-25T09:28:30.607Z,15.68
2022-12-25T09:30:57.280Z,15.73
2022-12-25T09:33:24.433Z,15.00
2022-12-25T09:35:55.538Z,17.73
2022-12-25T09:38:22.677Z,19.20
2022-12-25T09:40:57.475Z,19.83
2022-12-25T09:43:25.876Z,15.70
2022-12-25T09:45:52.682Z,16.13
2022-12-25T09:48:22.780Z,17.50
2022-12-25T09:51:04.674Z,21.48
2022-12-25T09:53:44.094Z,19.48
2022-12-25T09:56:14.694Z,20.52
2022-12-25T09:58:41.684Z,20.98
2022-12-25T10:01:14.235Z,24.90
2022-12-25T10:04:11.391Z,21.60
2022-12-25T10:06:47.035Z,21.63
2022-12-25T10:09:31.956Z,14.75
2022-12-25T10:12:14.630Z,20.80
2022-12-25T10:14:52.670Z,21.42
2022-12-25T10:17:37.927Z,21.65
2022-12-25T10:20:35.275Z,16.52
2022-12-25T10:23:04.755Z,18.45
2022-12-25T10:25:32.027Z,16.80
2022-12-25T10:28:05.427Z,17.60
2022-12-25T10:30:32.552Z,17.33
2022-12-25T10:32:59.482Z,16.08
2022-12-25T10:35:28.800Z,16.55
2022-12-25T10:38:06.654Z,18.17
2022-12-25T10:40:55.697Z,19.70
2022-12-25T10:43:31.618Z,17.80
2022-12-25T10:45:59.258Z,24.23
2022-12-25T10:48:28.754Z,23.90
2022-12-25T10:50:56.610Z,27.40
2022-12-25T10:53:26.403Z,23.55
2022-12-25T10:56:04.374Z,22.52
2022-12-25T10:58:32.078Z,19.80
2022-12-25T11:01:27.343Z,21.42
2022-12-25T11:03:54.191Z,14.38
2022-12-25T11:06:27.042Z,15.15
2022-12-25T11:08:58.682Z,17.67
2022-12-25T11:11:26.496Z,16.60
2022-12-25T11:13:57.302Z,13.82
2022-12-25T11:16:38.085Z,13.60
2022-12-25T11:19:24.821Z,14.60
2022-12-25T11:21:53.540Z,17.27
2022-12-25T11:24:22.776Z,25.70
2022-12-25T11:26:55.105Z,13.68
2022-12-25T11:29:37.429Z,18.95
2022-12-25T11:32:05.687Z,17.15
2022-12-25T11:34:44.232Z,17.55
2022-12-25T11:37:17.428Z,15.32
2022-12-25T11:39:44.156Z,14.75
2022-12-25T11:42:24.806Z,15.77
2022-12-25T11:44:59.479Z,14.48
2022-12-25T11:47:42.432Z,15.45
2022-12-25T11:50:33.430Z,15.05
2022-12-25T11:53:05.917Z,16.40
2022-12-25T11:55:38.102Z,18.42
2022-12-25T11:58:13.925Z,15.15
2022-12-25T12:00:41.798Z,16.88
2022-12-25T12:03:19.534Z,19.02
2022-12-25T12:05:52.339Z,16.38
2022-12-25T12:08:19.202Z,15.68
2022-12-25T12:11:19.563Z,17.27
2022-12-25T12:14:44.231Z,18.00
2022-12-25T12:17:19.363Z,17.35
2022-12-25T12:19:46.131Z,16.38
2022-12-25T12:22:25.270Z,16.90
2022-12-25T12:25:06.793Z,19.13
2022-12-25T12:27:37.225Z,21.70
2022-12-25T12:30:04.804Z,20.77
2022-12-25T12:32:34.793Z,24.23
2022-12-25T12:35:08.231Z,16.40
2022-12-25T12:37:37.226Z,19.98
2022-12-25T12:40:05.502Z,17.90
2022-12-25T12:42:36.392Z,19.08
2022-12-25T12:45:16.581Z,21.90
2022-12-25T12:47:49.099Z,18.67
2022-12-25T12:50:34.392Z,19.50
2022-12-25T12:53:16.107Z,21.88
2022-12-25T12:55:42.721Z,20.95
2022-12-25T12:58:13.267Z,35.80
2022-12-25T13:00:49.723Z,20.58
2022-12-25T13:03:34.592Z,19.42
2022-12-25T13:06:26.675Z,27.07
2022-12-25T13:09:33.187Z,19.30
2022-12-25T13:12:00.209Z,19.52
2022-12-25T13:14:27.297Z,20.65
2022-12-25T13:16:54.825Z,16.27
2022-12-25T13:19:27.063Z,21.25
2022-12-25T13:21:58.095Z,17.92
2022-12-25T13:24:29.933Z,18.27
2022-12-25T13:26:56.815Z,20.70
2022-12-25T13:29:37.936Z,20.35
2022-12-25T13:32:06.980Z,21.05
2022-12-25T13:34:38.279Z,15.77
2022-12-25T13:37:15.972Z,21.52
2022-12-25T13:39:51.579Z,18.00
2022-12-25T13:42:21.994Z,22.33
2022-12-25T13:44:52.440Z,20.73
2022-12-25T13:47:40.033Z,18.83
2022-12-25T13:50:26.165Z,18.50
2022-12-25T13:52:54.231Z,14.20
2022-12-25T13:55:24.170Z,17.20
2022-12-25T13:57:53.348Z,19.35
2022-12-25T14:00:25.854Z,20.58
2022-12-25T14:02:53.517Z,18.45
2022-12-25T14:05:42.199Z,16.90
2022-12-25T14:08:19.802Z,17.80
2022-12-25T14:10:49.397Z,17.60
2022-12-25T14:13:16.814Z,18.80
2022-12-25T14:15:45.495Z,18.73
2022-12-25T14:18:16.890Z,20.00
2022-12-25T14:21:00.173Z,17.40
2022-12-25T14:23:27.813Z,15.80
2022-12-25T14:25:54.804Z,20.08
2022-12-25T14:28:32.234Z,24.23
2022-12-25T14:31:02.637Z,20.45
2022-12-25T14:33:35.390Z,16.10
2022-12-25T14:36:02.508Z,27.80
2022-12-25T14:38:35.142Z,19.73
2022-12-25T14:41:07.840Z,28.40
2022-12-25T14:43:36.492Z,20.58
2022-12-25T14:46:06.713Z,30.85
2022-12-25T14:48:33.927Z,29.80
2022-12-25T14:51:10.237Z,36.85
2022-12-25T14:53:41.001Z,36.85
2022-12-25T14:56:08.621Z,36.95
2022-12-25T14:58:41.160Z,33.78
2022-12-25T15:01:44.789Z,36.75
2022-12-25T15:04:11.662Z,35.38
2022-12-25T15:07:01.358Z,30.25
2022-12-25T15:09:30.188Z,35.38
2022-12-25T15:11:57.228Z,29.05
2022-12-25T15:14:24.700Z,25.77
2022-12-25T15:16:57.405Z,23.23
2022-12-25T15:19:30.502Z,27.98
2022-12-25T15:22:02.548Z,19.40
2022-12-25T15:24:29.183Z,19.77
2022-12-25T15:26:56.129Z,20.08
2022-12-25T15:29:44.634Z,17.15
2022-12-25T15:32:16.154Z,18.50
2022-12-25T15:34:42.818Z,18.80
2022-12-25T15:37:09.518Z,19.85
2022-12-25T15:39:36.269Z,20.83
2022-12-25T15:42:11.814Z,19.42
2022-12-25T15:44:39.669Z,25.50
2022-12-25T15:47:06.619Z,20.52
2022-12-25T15:49:33.313Z,20.58
2022-12-25T15:52:00.013Z,19.45
2022-12-25T15:54:27.067Z,18.63
2022-12-25T15:56:55.442Z,16.73
2022-12-25T15:59:22.419Z,19.73
2022-12-25T16:01:51.827Z,27.20
2022-12-25T16:04:19.555Z,18.42
2022-12-25T16:06:46.750Z,19.30
2022-12-25T16:09:14.888Z,18.83
2022-12-25T16:11:41.970Z,18.08
2022-12-25T16:14:09.058Z,17.58
2022-12-25T16:16:35.765Z,18.80
2022-12-25T16:19:02.802Z,22.80
2022-12-25T16:21:39.110Z,20.60
2022-12-25T16:24:06.236Z,20.90
2022-12-25T16:26:33.456Z,23.92
2022-12-25T16:29:06.811Z,22.35
2022-12-25T16:31:34.625Z,20.27
2022-12-25T16:34:01.717Z,15.50
2022-12-25T16:36:28.523Z,17.60
2022-12-25T16:38:55.275Z,17.55
2022-12-25T16:41:21.986Z,23.80
2022-12-25T16:43:49.143Z,17.33
2022-12-25T16:46:18.011Z,18.67
2022-12-25T16:48:44.813Z,18.67
2022-12-25T16:51:16.095Z,21.15
2022-12-25T16:53:43.492Z,21.38
2022-12-25T16:56:14.874Z,18.98
2022-12-25T16:58:42.928Z,19.02
2022-12-25T17:01:11.791Z,16.90
2022-12-25T17:03:45.554Z,14.82
2022-12-25T17:06:20.079Z,20.67
2022-12-25T17:08:51.234Z,23.43
2022-12-25T17:11:19.603Z,19.05
2022-12-25T17:13:47.707Z,22.42
2022-12-25T17:16:19.532Z,20.75
2022-12-25T17:18:46.615Z,19.50
2022-12-25T17:21:14.824Z,24.63
2022-12-25T17:23:42.015Z,20.80
2022-12-25T17:26:21.048Z,19.38
2022-12-25T17:28:48.800Z,19.73
2022-12-25T17:31:15.753Z,20.98
2022-12-25T17:33:44.104Z,18.15
2022-12-25T17:36:17.718Z,20.38
2022-12-25T17:38:45.284Z,23.02
2022-12-25T17:41:15.882Z,20.45
2022-12-25T17:43:46.914Z,22.42
2022-12-25T17:46:19.388Z,22.33
2022-12-25T17:48:46.909Z,23.70
2022-12-25T17:51:18.388Z,22.42
2022-12-25T17:53:48.027Z,23.00
2022-12-25T17:56:15.688Z,25.30
2022-12-25T17:58:43.196Z,25.58
2022-12-25T18:01:16.033Z,28.35
2022-12-25T18:03:43.986Z,28.45
2022-12-25T18:06:22.773Z,27.02
2022-12-25T18:08:50.091Z,25.02
2022-12-25T18:11:20.052Z,30.85
2022-12-25T18:13:49.967Z,28.55
2022-12-25T18:16:17.707Z,27.27
2022-12-25T18:18:51.495Z,37.92
2022-12-25T18:21:24.569Z,36.50
2022-12-25T18:23:51.339Z,37.67
2022-12-25T18:26:19.178Z,30.38
2022-12-25T18:28:46.499Z,27.00
2022-12-25T18:31:15.800Z,24.90
2022-12-25T18:33:43.067Z,27.30
2022-12-25T18:36:11.521Z,30.58
2022-12-25T18:38:39.451Z,23.05
2022-12-25T18:41:07.652Z,25.50
2022-12-25T18:43:54.372Z,27.20
2022-12-25T18:46:24.573Z,26.98
2022-12-25T18:48:51.809Z,30.90
2022-12-25T18:51:19.160Z,37.65
2022-12-25T18:53:46.321Z,33.15
2022-12-25T18:56:16.019Z,29.83
2022-12-25T18:58:43.445Z,27.90
2022-12-25T19:01:21.975Z,31.17
2022-12-25T19:03:49.969Z,30.10
2022-12-25T19:06:18.483Z,23.65
2022-12-25T19:08:52.801Z,26.40
2022-12-25T19:11:20.440Z,27.15
2022-12-25T19:13:47.564Z,21.92
2022-12-25T19:16:18.473Z,25.20
2022-12-25T19:18:45.746Z,21.05
2022-12-25T19:21:12.401Z,28.08
2022-12-25T19:23:39.221Z,26.58
2022-12-25T19:26:07.575Z,29.88
2022-12-25T19:28:35.070Z,25.40
2022-12-25T19:31:02.241Z,27.05
2022-12-25T19:33:32.216Z,26.52
2022-12-25T19:36:04.755Z,31.08
2022-12-25T19:38:47.452Z,29.38
2022-12-25T19:41:17.051Z,31.48
2022-12-25T19:43:45.715Z,28.40
2022-12-25T19:46:19.719Z,30.10
2022-12-25T19:48:47.014Z,25.80
2022-12-25T19:51:22.223Z,26.75
2022-12-25T19:53:49.142Z,27.40
2022-12-25T19:56:16.280Z,28.98
2022-12-25T20:10:16.785Z,23.38
2022-12-25T20:12:44.582Z,18.55
2022-12-25T20:15:11.536Z,17.67
2022-12-25T20:17:38.299Z,17.58
2022-12-25T20:20:05.442Z,21.55
2022-12-25T20:22:32.140Z,20.02
2022-12-25T20:24:59.513Z,20.25
2022-12-25T20:27:26.158Z,21.85
2022-12-25T20:29:52.745Z,18.95
2022-12-25T20:32:19.484Z,22.77
2022-12-25T20:34:46.180Z,20.40
2022-12-25T20:37:12.832Z,18.83
2022-12-25T20:39:39.695Z,26.33
2022-12-25T20:42:06.804Z,21.52
2022-12-25T20:44:33.554Z,26.77
2022-12-25T20:47:01.262Z,27.05
2022-12-25T20:49:32.428Z,28.10
2022-12-25T20:52:04.908Z,25.15
2022-12-25T20:54:42.563Z,25.05
2022-12-25T20:57:09.851Z,21.67
2022-12-25T20:59:37.847Z,21.33
2022-12-25T21:02:04.782Z,24.02
2022-12-25T21:04:31.804Z,21.48
2022-12-25T21:06:58.386Z,20.98
2022-12-25T21:09:25.012Z,19.98
2022-12-25T21:11:51.852Z,23.75
2022-12-25T21:14:18.563Z,23.30
2022-12-25T21:16:45.405Z,25.17
2022-12-25T21:19:14.628Z,29.77
2022-12-25T21:21:43.144Z,26.90
2022-12-25T21:24:10.786Z,28.20
2022-12-25T21:26:39.165Z,32.97
2022-12-25T21:29:09.349Z,33.15
2022-12-25T21:31:56.022Z,33.28
2022-12-25T21:34:22.667Z,25.25
2022-12-25T21:36:49.419Z,25.58
2022-12-25T21:39:16.350Z,28.15
2022-12-25T21:41:42.998Z,28.88
2022-12-25T21:44:11.125Z,27.77
2022-12-25T21:46:37.836Z,26.30
2022-12-25T21:49:04.798Z,29.23
2022-12-25T21:51:51.875Z,28.13
2022-12-25T21:54:20.203Z,26.15
2022-12-25T21:56:48.147Z,23.92
2022-12-25T21:59:19.927Z,29.20
2022-12-25T22:01:47.676Z,24.85
2022-12-25T22:04:16.062Z,24.95
2022-12-25T22:07:01.388Z,24.23
2022-12-25T22:09:28.106Z,24.83
2022-12-25T22:12:13.331Z,23.20
2022-12-25T22:14:57.150Z,23.27
2022-12-25T22:17:48.272Z,24.48
2022-12-25T22:20:19.590Z,27.55
2022-12-25T22:22:46.447Z,29.60
2022-12-25T22:25:13.903Z,25.88
2022-12-25T22:27:41.892Z,28.20
2022-12-25T22:30:17.691Z,24.92
2022-12-25T22:32:44.796Z,23.33
2022-12-25T22:35:12.545Z,21.02
2022-12-25T22:37:39.889Z,24.10
2022-12-25T22:40:07.469Z,21.23
2022-12-25T22:42:34.278Z,20.58
2022-12-25T22:45:01.084Z,22.42
2022-12-25T22:47:27.903Z,20.13
2022-12-25T22:49:54.490Z,23.33
2022-12-25T22:52:21.192Z,20.92
2022-12-25T22:54:47.851Z,21.38
2022-12-25T22:57:14.907Z,24.75
2022-12-25T22:59:41.711Z,23.35
2022-12-25T23:02:08.645Z,22.30
2022-12-25T23:04:35.700Z,23.42
2022-12-25T23:07:02.739Z,23.50
2022-12-25T23:09:29.505Z,28.30
2022-12-25T23:11:57.254Z,24.45
2022-12-25T23:14:40.665Z,23.08
2022-12-25T23:17:31.541Z,23.15
2022-12-25T23:20:18.281Z,22.17
2022-12-25T23:23:04.557Z,20.50
2022-12-25T23:25:49.966Z,23.33
2022-12-25T23:28:36.564Z,25.08
2022-12-25T23:31:03.673Z,27.42
2022-12-25T23:33:30.391Z,29.35
2022-12-25T23:35:56.969Z,25.77
2022-12-25T23:38:23.640Z,22.88
2022-12-25T23:40:50.397Z,25.05
2022-12-25T23:43:17.003Z,23.25
2022-12-25T23:45:43.621Z,19.48
2022-12-25T23:48:10.264Z,22.35
2022-12-25T23:50:36.944Z,19.80
2022-12-25T23:53:03.561Z,21.42
2022-12-25T23:55:30.291Z,19.63
2022-12-25T23:57:56.969Z,25.35
